Time;durP1;ratioP1;P1;durP2;ratioP2;P2;SDS_P1;SDS_P2;PMS_P1;PMS_P2;Temp;Humidity;BMP_temperature;BMP_pressure;BME280_temperature;BME280_humidity;BME280_pressure;Samples;Min_cycle;Max_cycle;Signal;HPM_P1;HPM_P2
2023/07/18 00:00:25;;;;;;;15.98;12.23;;;;;;;23.41;75.40;94788.88;5072067;28;20517;-78
2023/07/18 00:02:52;;;;;;;14.52;11.68;;;;;;;23.33;75.39;94788.13;5070046;28;20203;-75
2023/07/18 00:05:18;;;;;;;15.93;9.52;;;;;;;23.29;75.74;94781.84;5070577;28;20207;-76
2023/07/18 00:07:45;;;;;;;20.02;9.75;;;;;;;23.27;75.85;94777.91;5070674;28;20608;-76
2023/07/18 00:10:12;;;;;;;15.30;9.00;;;;;;;23.24;76.36;94779.50;5070281;28;20211;-76
2023/07/18 00:12:41;;;;;;;11.40;8.43;;;;;;;23.20;76.08;94784.28;5070321;28;20205;-77
2023/07/18 00:15:09;;;;;;;13.88;8.63;;;;;;;23.12;76.10;94779.97;5070273;28;20578;-76
2023/07/18 00:17:37;;;;;;;12.00;8.48;;;;;;;23.10;76.36;94790.63;5070459;28;20207;-76
2023/07/18 00:20:08;;;;;;;12.50;9.13;;;;;;;23.10;77.36;94774.06;5070380;28;20206;-76
2023/07/18 00:22:35;;;;;;;17.27;10.07;;;;;;;23.06;77.75;94773.31;5070554;28;20203;-76
2023/07/18 00:25:02;;;;;;;13.13;9.10;;;;;;;22.97;78.44;94776.50;5070097;28;20247;-76
2023/07/18 00:27:29;;;;;;;11.82;8.88;;;;;;;22.87;78.41;94776.56;5070199;28;20210;-76
2023/07/18 00:29:57;;;;;;;14.77;12.23;;;;;;;22.91;77.04;94760.75;5070153;28;20639;-76
2023/07/18 00:32:24;;;;;;;14.95;9.50;;;;;;;22.93;78.18;94775.75;5069852;28;20526;-76
2023/07/18 00:34:56;;;;;;;11.32;8.82;;;;;;;22.89;78.03;94785.22;5069481;28;20214;-76
2023/07/18 00:37:23;;;;;;;12.52;8.20;;;;;;;22.91;77.23;94771.81;5070107;28;20333;-76
2023/07/18 00:39:50;;;;;;;16.83;8.73;;;;;;;22.91;77.82;94778.13;5069620;28;20211;-76
2023/07/18 00:42:16;;;;;;;12.50;8.60;;;;;;;22.88;77.96;94772.59;5070206;28;20715;-76
2023/07/18 00:44:43;;;;;;;13.57;8.95;;;;;;;22.67;78.92;94768.75;5069564;28;20202;-76
2023/07/18 00:47:11;;;;;;;13.25;9.38;;;;;;;22.56;79.25;94762.44;5070003;28;20203;-76
2023/07/18 00:49:38;;;;;;;14.50;9.15;;;;;;;22.37;80.34;94760.19;5069430;28;20272;-76
2023/07/18 00:52:06;;;;;;;10.63;8.07;;;;;;;22.24;81.02;94753.53;5069253;28;20229;-76
2023/07/18 00:54:34;;;;;;;12.27;9.00;;;;;;;22.33;80.76;94751.13;5068502;28;20199;-76
2023/07/18 00:57:02;;;;;;;16.98;8.82;;;;;;;22.44;79.73;94743.56;5068828;28;20636;-76
2023/07/18 00:59:31;;;;;;;11.85;8.88;;;;;;;22.40;79.86;94744.78;5070179;28;20194;-76
2023/07/18 01:01:58;;;;;;;13.75;9.32;;;;;;;22.28;80.76;94743.22;5068942;28;20210;-76
2023/07/18 01:04:26;;;;;;;13.07;9.10;;;;;;;22.33;81.97;94738.09;5069260;28;20215;-76
2023/07/18 01:06:53;;;;;;;14.05;10.75;;;;;;;22.28;82.50;94744.03;5069013;28;20606;-76
2023/07/18 01:09:20;;;;;;;15.20;10.05;;;;;;;22.24;81.82;94742.47;5068826;28;20305;-75
2023/07/18 01:11:47;;;;;;;11.40;9.15;;;;;;;22.01;82.77;94737.41;5069627;28;20211;-77
2023/07/18 01:14:14;;;;;;;13.60;9.75;;;;;;;22.19;82.57;94740.13;5069555;28;20235;-78
2023/07/18 01:16:42;;;;;;;14.40;9.50;;;;;;;22.26;82.93;94737.34;5069058;28;20227;-76
2023/07/18 01:19:09;;;;;;;11.38;8.75;;;;;;;22.27;82.20;94738.94;5068933;28;20234;-76
2023/07/18 01:21:37;;;;;;;13.65;9.48;;;;;;;21.70;84.58;94750.06;5068787;28;20202;-75
2023/07/18 01:24:05;;;;;;;15.48;9.43;;;;;;;21.59;84.51;94738.25;5068888;28;20203;-77
2023/07/18 01:26:32;;;;;;;13.35;9.57;;;;;;;21.70;84.37;94744.53;5069337;28;20606;-76
2023/07/18 01:28:59;;;;;;;14.65;10.05;;;;;;;21.59;85.98;94754.78;5067662;28;20207;-76
2023/07/18 01:31:27;;;;;;;12.55;8.77;;;;;;;21.67;85.50;94756.34;5069134;28;20574;-76
2023/07/18 01:33:54;;;;;;;12.25;9.50;;;;;;;21.53;86.50;94761.88;5069105;28;20203;-77
2023/07/18 01:36:22;;;;;;;13.55;9.68;;;;;;;21.59;86.16;94757.56;5069119;28;20231;-77
2023/07/18 01:38:50;;;;;;;13.65;10.38;;;;;;;21.67;85.51;94756.34;5068621;28;20683;-76
2023/07/18 01:41:17;;;;;;;13.73;9.55;;;;;;;21.79;84.96;94749.63;5069166;28;20202;-77
2023/07/18 01:43:43;;;;;;;15.02;9.80;;;;;;;21.85;84.74;94768.16;5068502;28;20207;-76
2023/07/18 01:46:10;;;;;;;13.77;9.73;;;;;;;21.84;84.03;94761.06;5058434;28;20210;-77
2023/07/18 01:48:38;;;;;;;11.90;8.90;;;;;;;21.94;82.80;94765.78;5074912;28;20228;-76
2023/07/18 01:51:05;;;;;;;13.55;9.50;;;;;;;21.83;83.45;94765.00;5078721;28;20207;-76
2023/07/18 01:53:32;;;;;;;12.55;9.68;;;;;;;21.87;83.26;94754.75;5068994;28;20489;-77
2023/07/18 01:56:00;;;;;;;13.70;9.32;;;;;;;21.78;83.56;94762.63;5068273;28;20226;-76
2023/07/18 01:58:26;;;;;;;12.88;9.60;;;;;;;21.76;83.79;94759.50;5068893;28;20198;-77
2023/07/18 02:00:53;;;;;;;13.77;9.65;;;;;;;21.79;83.83;94757.91;5069548;28;20206;-76
2023/07/18 02:03:20;;;;;;;14.55;9.80;;;;;;;21.65;84.65;94753.19;5068026;28;20246;-77
2023/07/18 02:05:47;;;;;;;14.15;10.02;;;;;;;21.64;85.09;94751.63;5067781;28;20722;-76
2023/07/18 02:08:14;;;;;;;14.15;10.23;;;;;;;21.68;84.31;94757.94;5068588;28;20195;-76
2023/07/18 02:10:40;;;;;;;13.52;9.38;;;;;;;21.71;84.25;94746.13;5068392;28;20353;-76
2023/07/18 02:13:09;;;;;;;13.10;9.45;;;;;;;21.68;84.78;94757.16;5068349;28;20244;-76
2023/07/18 02:15:36;;;;;;;12.15;9.30;;;;;;;21.68;84.72;94755.16;5068546;28;20235;-76
2023/07/18 02:18:03;;;;;;;12.93;9.50;;;;;;;21.82;83.91;94755.16;5068278;28;20207;-76
2023/07/18 02:20:29;;;;;;;12.88;9.55;;;;;;;21.73;84.30;94760.28;5067232;28;20199;-76
2023/07/18 02:23:00;;;;;;;12.88;8.88;;;;;;;21.71;84.37;94757.16;5067632;28;20237;-77
2023/07/18 02:25:27;;;;;;;14.25;9.55;;;;;;;21.74;84.31;94756.34;5068297;28;20203;-77
2023/07/18 02:27:53;;;;;;;18.85;10.68;;;;;;;21.79;83.84;94758.69;5067994;28;20619;-75
2023/07/18 02:30:22;;;;;;;12.93;9.70;;;;;;;21.74;83.91;94763.81;5068017;28;20248;-76
2023/07/18 02:32:49;;;;;;;17.65;10.10;;;;;;;21.64;84.63;94752.41;5067727;28;20230;-76
2023/07/18 02:35:19;;;;;;;14.30;10.30;;;;;;;21.61;84.98;94768.94;5072901;28;20294;-76
2023/07/18 02:37:46;;;;;;;12.43;9.73;;;;;;;21.58;85.10;94769.75;5068276;28;20269;-76
2023/07/18 02:40:15;;;;;;;13.85;9.77;;;;;;;21.65;85.10;94775.25;5068115;28;20280;-76
2023/07/18 02:42:42;;;;;;;14.85;9.40;;;;;;;21.62;85.36;94778.78;5067946;28;20688;-76
2023/07/18 02:45:09;;;;;;;12.80;9.15;;;;;;;21.57;85.54;94770.94;5068576;28;20543;-75
2023/07/18 02:47:38;;;;;;;13.80;9.88;;;;;;;21.61;85.24;94771.72;5068100;28;20252;-76
2023/07/18 02:50:06;;;;;;;15.60;9.90;;;;;;;21.68;84.93;94765.41;5067535;28;20206;-76
2023/07/18 02:52:33;;;;;;;15.52;10.65;;;;;;;21.58;84.59;94769.75;5067185;28;20203;-76
2023/07/18 02:54:59;;;;;;;15.45;9.90;;;;;;;21.53;85.81;94764.63;5068093;28;20221;-77
2023/07/18 02:57:26;;;;;;;14.73;10.40;;;;;;;21.44;85.70;94764.25;5068180;28;20231;-76
2023/07/18 02:59:53;;;;;;;13.80;10.05;;;;;;;21.45;85.79;94766.63;5067451;28;20203;-76
2023/07/18 03:02:20;;;;;;;16.50;10.95;;;;;;;21.49;85.38;94772.09;5067808;28;20191;-76
2023/07/18 03:04:49;;;;;;;13.70;10.63;;;;;;;21.46;85.20;94770.91;5067706;28;20674;-76
2023/07/18 03:07:17;;;;;;;16.02;10.18;;;;;;;21.51;85.27;94770.53;5067838;28;20202;-76
2023/07/18 03:09:44;;;;;;;18.50;10.35;;;;;;;21.51;85.88;94778.81;5068266;28;20257;-76
2023/07/18 03:12:11;;;;;;;18.75;10.93;;;;;;;21.52;85.58;94771.31;5065483;28;20210;-76
2023/07/18 03:14:38;;;;;;;15.25;10.95;;;;;;;21.51;85.11;94775.25;5057116;28;20225;-76
2023/07/18 03:17:05;;;;;;;18.27;12.68;;;;;;;21.71;85.04;94768.19;5072065;28;20231;-76
2023/07/18 03:19:32;;;;;;;14.93;11.35;;;;;;;21.96;83.87;94771.69;5079834;28;20214;-77
2023/07/18 03:22:00;;;;;;;15.32;10.60;;;;;;;22.31;82.68;94772.81;5073920;28;20277;-77
2023/07/18 03:24:27;;;;;;;17.92;11.07;;;;;;;22.75;81.09;94774.22;5072113;28;20195;-77
2023/07/18 03:26:54;;;;;;;18.63;13.95;;;;;;;23.21;79.06;94768.47;5071988;28;20206;-76
2023/07/18 03:29:21;;;;;;;13.45;10.20;;;;;;;23.73;77.04;94775.59;5072364;28;20198;-76
2023/07/18 03:31:48;;;;;;;17.75;13.77;;;;;;;24.19;75.41;94776.38;5071556;28;20244;-77
2023/07/18 03:34:14;;;;;;;15.18;10.38;;;;;;;24.77;73.38;94767.81;5071732;28;20203;-76
2023/07/18 03:36:41;;;;;;;16.42;10.55;;;;;;;25.24;71.61;94761.66;5071946;28;20219;-77
2023/07/18 03:39:10;;;;;;;12.75;9.88;;;;;;;25.75;69.83;94768.81;5072216;28;20211;-76
2023/07/18 03:41:38;;;;;;;15.85;11.18;;;;;;;26.39;67.11;94773.25;5071392;28;20281;-76
2023/07/18 03:44:06;;;;;;;14.40;9.00;;;;;;;26.77;65.06;94777.28;5071073;28;20257;-81
2023/07/18 03:46:33;;;;;;;14.95;10.23;;;;;;;27.25;63.90;94767.53;5061245;28;20278;-80
2023/07/18 03:49:00;;;;;;;13.15;8.30;;;;;;;27.05;59.77;94781.50;5071449;28;20219;-80
2023/07/18 03:51:27;;;;;;;13.18;11.27;;;;;;;27.64;57.79;94788.16;5071656;28;20199;-81
2023/07/18 03:53:54;;;;;;;12.43;11.13;;;;;;;28.29;58.75;94789.72;5071618;28;20199;-81
2023/07/18 03:56:22;;;;;;;16.20;12.63;;;;;;;27.82;60.18;94792.09;5071995;28;20191;-80
2023/07/18 03:58:51;;;;;;;15.45;11.95;;;;;;;28.10;60.19;94810.09;5071294;28;20214;-80
2023/07/18 04:01:18;;;;;;;14.63;12.13;;;;;;;28.36;58.17;94799.13;5071433;28;20718;-81
2023/07/18 04:03:45;;;;;;;13.90;11.85;;;;;;;28.77;57.32;94807.53;5071091;28;20253;-81
2023/07/18 04:06:11;;;;;;;16.33;12.70;;;;;;;29.58;55.75;94806.44;5070789;28;20203;-81
2023/07/18 04:08:38;;;;;;;11.30;9.73;;;;;;;29.70;51.63;94805.66;5071107;28;20224;-82
2023/07/18 04:11:05;;;;;;;15.80;12.45;;;;;;;30.39;53.57;94801.00;5071820;28;20272;-81
2023/07/18 04:13:33;;;;;;;15.85;12.15;;;;;;;30.50;53.23;94811.81;5071837;28;20195;-82
2023/07/18 04:16:00;;;;;;;13.77;12.20;;;;;;;30.97;51.91;94805.38;5069348;28;20298;-81
2023/07/18 04:18:27;;;;;;;15.90;11.98;;;;;;;31.30;51.34;94800.16;5051001;28;20234;-82
2023/07/18 04:21:00;;;;;;;14.00;12.02;;;;;;;31.28;50.92;94797.06;5067390;28;20203;-82
2023/07/18 04:23:27;;;;;;;18.27;12.77;;;;;;;31.46;50.72;94808.34;5069835;28;20205;-83
2023/07/18 04:25:58;;;;;;;14.18;12.10;;;;;;;32.11;48.91;94793.41;5069817;28;20206;-82
2023/07/18 04:28:27;;;;;;;14.07;12.65;;;;;;;31.90;49.17;94791.47;5070134;28;20308;-78
2023/07/18 04:30:56;;;;;;;14.18;12.45;;;;;;;32.10;48.62;94789.03;5070314;28;20355;-77
2023/07/18 04:33:23;;;;;;;15.65;13.10;;;;;;;33.10;46.26;94791.94;5070079;28;20187;-78
2023/07/18 04:35:49;;;;;;;14.65;13.15;;;;;;;33.35;45.62;94787.25;5070006;28;20662;-78
2023/07/18 04:38:16;;;;;;;16.75;13.07;;;;;;;33.44;45.21;94788.00;5069959;28;20223;-78
2023/07/18 04:40:43;;;;;;;15.95;12.88;;;;;;;33.37;45.47;94793.94;5069954;28;20573;-78
2023/07/18 04:43:10;;;;;;;15.98;13.13;;;;;;;33.81;43.97;94791.47;5069602;28;20202;-78
2023/07/18 04:45:42;;;;;;;16.85;13.63;;;;;;;33.95;43.57;94792.06;5069681;28;20202;-78
2023/07/18 04:48:11;;;;;;;14.55;12.52;;;;;;;34.75;42.31;94785.63;5069652;28;20199;-78
2023/07/18 04:50:38;;;;;;;15.02;13.15;;;;;;;34.39;42.30;94790.28;5068753;28;20249;-76
2023/07/18 04:53:05;;;;;;;15.25;13.30;;;;;;;34.62;42.13;94783.06;5069019;28;20203;-76
2023/07/18 04:55:32;;;;;;;14.63;12.88;;;;;;;34.84;41.65;94775.13;5070292;28;20256;-76
2023/07/18 04:57:59;;;;;;;19.33;12.88;;;;;;;35.23;41.44;94769.44;5069194;28;20234;-77
2023/07/18 05:00:25;;;;;;;15.80;12.82;;;;;;;35.47;40.01;94774.97;5071079;28;20661;-76
2023/07/18 05:02:52;;;;;;;15.23;12.40;;;;;;;35.68;40.18;94765.31;5069563;28;20199;-79
2023/07/18 05:05:21;;;;;;;13.05;11.68;;;;;;;36.22;38.59;94780.81;5070128;28;20207;-77
2023/07/18 05:07:48;;;;;;;13.73;12.07;;;;;;;36.66;37.62;94772.16;5068957;28;20203;-77
2023/07/18 05:10:15;;;;;;;13.75;11.80;;;;;;;36.42;37.08;94776.47;5068471;28;20210;-77
2023/07/18 05:12:41;;;;;;;13.25;11.95;;;;;;;36.53;37.33;94768.16;5069265;28;20199;-77
2023/07/18 05:15:09;;;;;;;15.80;12.13;;;;;;;37.16;36.91;94777.66;5069806;28;20211;-77
2023/07/18 05:17:36;;;;;;;13.90;11.98;;;;;;;36.99;36.86;94769.00;5069651;28;20231;-78
2023/07/18 05:20:04;;;;;;;14.85;13.10;;;;;;;37.56;36.20;94776.00;5069484;28;20203;-77
2023/07/18 05:22:32;;;;;;;16.02;12.63;;;;;;;36.98;36.92;94770.25;5069370;28;20199;-77
2023/07/18 05:25:00;;;;;;;14.05;12.60;;;;;;;37.98;36.05;94778.94;5069287;28;20202;-78
2023/07/18 05:27:27;;;;;;;18.20;12.93;;;;;;;38.08;35.98;94781.56;5069263;28;20294;-77
2023/07/18 05:29:55;;;;;;;14.63;12.68;;;;;;;38.02;35.33;94773.81;5069423;28;20272;-77
2023/07/18 05:32:22;;;;;;;14.60;13.07;;;;;;;38.39;34.88;94767.41;5068960;28;20230;-78
2023/07/18 05:34:50;;;;;;;13.95;12.52;;;;;;;38.12;35.24;94776.50;5068804;28;20199;-78
2023/07/18 05:37:17;;;;;;;16.83;12.25;;;;;;;38.48;35.12;94775.66;5068578;28;20227;-79
2023/07/18 05:39:45;;;;;;;14.25;12.77;;;;;;;38.75;34.29;94766.56;5068780;28;20272;-77
2023/07/18 05:42:12;;;;;;;19.15;12.80;;;;;;;38.32;34.39;94782.78;5068657;28;20636;-77
2023/07/18 05:44:39;;;;;;;15.43;12.95;;;;;;;38.29;35.02;94785.84;5068520;28;20288;-77
2023/07/18 05:47:06;;;;;;;15.43;13.23;;;;;;;36.73;36.71;94792.81;5068999;28;20234;-77
2023/07/18 05:49:33;;;;;;;15.35;13.10;;;;;;;36.03;38.50;94790.00;5068379;28;20210;-77
2023/07/18 05:52:00;;;;;;;17.58;12.88;;;;;;;36.76;37.81;94789.00;5068184;28;20626;-77
2023/07/18 05:54:28;;;;;;;18.08;13.90;;;;;;;37.49;36.25;94776.44;5067801;28;20206;-77
2023/07/18 05:56:58;;;;;;;15.48;12.70;;;;;;;36.43;38.50;94783.69;5067562;28;20214;-75
2023/07/18 05:59:25;;;;;;;15.40;13.43;;;;;;;35.60;39.31;94792.38;5069747;28;20720;-77
2023/07/18 06:01:51;;;;;;;17.75;13.75;;;;;;;36.40;38.18;94774.16;5068701;28;20286;-79
2023/07/18 06:04:18;;;;;;;14.02;12.63;;;;;;;36.20;39.26;94789.00;5063464;28;20202;-78
2023/07/18 06:06:45;;;;;;;17.02;11.90;;;;;;;36.79;39.00;94776.72;5068572;28;20266;-78
2023/07/18 06:09:12;;;;;;;16.35;12.27;;;;;;;37.04;36.76;94766.72;5068689;28;20641;-78
2023/07/18 06:11:39;;;;;;;17.58;12.93;;;;;;;37.90;36.21;94777.06;5067806;28;20278;-78
2023/07/18 06:14:07;;;;;;;15.20;12.43;;;;;;;37.89;36.14;94776.28;5067725;28;20617;-77
2023/07/18 06:16:34;;;;;;;15.85;13.27;;;;;;;38.86;34.34;94770.69;5071017;28;20207;-77
2023/07/18 06:19:01;;;;;;;15.63;12.98;;;;;;;39.04;33.99;94771.06;5068073;28;20234;-78
2023/07/18 06:21:28;;;;;;;16.08;12.90;;;;;;;38.64;34.70;94772.19;5068516;28;20207;-77
2023/07/18 06:23:55;;;;;;;15.82;12.68;;;;;;;39.43;34.31;94768.31;5068135;28;20263;-77
2023/07/18 06:26:22;;;;;;;19.80;12.85;;;;;;;38.96;34.15;94774.84;5068454;28;20286;-78
2023/07/18 06:28:49;;;;;;;17.42;13.23;;;;;;;38.72;34.46;94766.78;5068390;28;20650;-78
2023/07/18 06:31:18;;;;;;;14.45;12.68;;;;;;;38.60;36.18;94771.63;5067894;28;20574;-78
2023/07/18 06:33:46;;;;;;;17.55;12.18;;;;;;;39.79;32.75;94760.84;5068786;28;20661;-77
2023/07/18 06:36:13;;;;;;;14.63;12.02;;;;;;;38.62;34.03;94780.41;5067835;28;20636;-77
2023/07/18 06:38:40;;;;;;;15.65;12.65;;;;;;;39.05;34.07;94774.66;5067797;28;20230;-77
2023/07/18 06:41:07;;;;;;;17.30;12.65;;;;;;;38.80;35.03;94779.19;5068856;28;20199;-76
2023/07/18 06:43:33;;;;;;;14.02;12.55;;;;;;;37.87;35.56;94776.00;5069877;28;20275;-77
2023/07/18 06:46:00;;;;;;;15.40;12.55;;;;;;;38.16;36.05;94777.00;5067708;28;20641;-78
2023/07/18 06:48:28;;;;;;;16.00;13.70;;;;;;;35.49;39.68;94789.38;5071378;28;20210;-75
2023/07/18 06:50:59;;;;;;;17.17;13.52;;;;;;;35.07;41.66;94784.75;5066702;28;20194;-78
2023/07/18 06:53:25;;;;;;;15.90;14.20;;;;;;;35.20;40.22;94788.06;5071445;28;20282;-77
2023/07/18 06:55:53;;;;;;;22.40;14.57;;;;;;;35.59;39.71;94779.53;5071584;28;20205;-78
2023/07/18 06:58:20;;;;;;;16.73;13.18;;;;;;;36.91;36.79;94773.50;5074851;28;20238;-78
2023/07/18 07:00:47;;;;;;;18.20;13.88;;;;;;;36.61;37.38;94778.53;5072545;28;20730;-78
2023/07/18 07:03:14;;;;;;;16.08;13.45;;;;;;;36.33;37.63;94791.50;5072253;28;20210;-77
2023/07/18 07:05:43;;;;;;;15.25;12.77;;;;;;;36.40;37.51;94785.44;5071286;28;20195;-77
2023/07/18 07:08:12;;;;;;;15.35;13.43;;;;;;;34.18;42.04;94791.28;5061777;28;20210;-76
2023/07/18 07:10:40;;;;;;;15.60;13.25;;;;;;;34.70;41.88;94783.50;5072509;28;20288;-77
2023/07/18 07:13:07;;;;;;;23.48;14.68;;;;;;;35.30;41.94;94779.53;5079479;28;20234;-78
2023/07/18 07:15:34;;;;;;;18.08;14.93;;;;;;;34.95;41.03;94783.00;5078425;28;20195;-77
2023/07/18 07:18:02;;;;;;;18.42;14.70;;;;;;;35.37;40.74;94779.94;5069864;28;20222;-77
2023/07/18 07:20:30;;;;;;;21.08;15.10;;;;;;;35.69;40.82;94783.81;5075469;28;20203;-78
2023/07/18 07:22:58;;;;;;;23.13;15.30;;;;;;;35.94;40.44;94783.22;5070841;28;20249;-80
2023/07/18 07:25:27;;;;;;;18.17;14.57;;;;;;;35.96;41.13;94786.31;5073783;28;20256;-77
2023/07/18 07:27:54;;;;;;;18.20;14.32;;;;;;;35.78;40.82;94789.38;5071112;28;20207;-79
2023/07/18 07:30:20;;;;;;;18.38;15.30;;;;;;;35.13;42.53;94787.66;5073896;28;20260;-78
2023/07/18 07:32:50;;;;;;;20.73;15.05;;;;;;;35.98;40.47;94777.38;5084351;28;20572;-78
2023/07/18 07:35:18;;;;;;;21.25;13.95;;;;;;;37.18;38.97;94775.13;5091577;28;20280;-78
2023/07/18 07:37:45;;;;;;;20.30;14.13;;;;;;;35.87;40.23;94777.97;5074178;28;20233;-76
2023/07/18 07:40:13;;;;;;;22.33;14.52;;;;;;;36.23;40.08;94779.56;5068079;28;20211;-77
2023/07/18 07:42:41;;;;;;;17.30;13.95;;;;;;;37.09;38.91;94775.25;5071537;28;20215;-78
2023/07/18 07:45:08;;;;;;;17.02;12.85;;;;;;;37.51;38.03;94768.25;5067320;28;20211;-78
2023/07/18 07:47:35;;;;;;;17.40;14.30;;;;;;;36.57;39.56;94777.97;5061901;28;20261;-78
2023/07/18 07:50:03;;;;;;;14.25;12.80;;;;;;;37.14;39.75;94774.56;5070931;28;20655;-77
2023/07/18 07:52:30;;;;;;;15.52;12.55;;;;;;;36.68;39.18;94771.69;5071236;28;20211;-80
2023/07/18 07:54:57;;;;;;;15.18;13.07;;;;;;;36.96;39.59;94777.69;5073907;28;20217;-79
2023/07/18 07:57:26;;;;;;;18.33;13.50;;;;;;;35.07;43.38;94776.31;5090708;28;20661;-78
2023/07/18 07:59:53;;;;;;;15.98;12.95;;;;;;;35.88;42.47;94773.88;5085017;28;20358;-78
2023/07/18 08:02:20;;;;;;;18.38;13.25;;;;;;;36.74;41.37;94780.25;5070612;28;20674;-78
2023/07/18 08:04:47;;;;;;;20.13;14.07;;;;;;;36.32;41.21;94773.03;5089436;28;20305;-79
2023/07/18 08:07:14;;;;;;;17.23;13.55;;;;;;;35.19;43.25;94778.06;5078893;28;20202;-77
2023/07/18 08:09:42;;;;;;;15.40;13.70;;;;;;;35.07;43.56;94779.13;5070533;28;20208;-79
2023/07/18 08:12:10;;;;;;;20.30;14.00;;;;;;;34.91;43.38;94779.56;5071774;28;20703;-77
2023/07/18 08:14:39;;;;;;;16.25;13.93;;;;;;;34.11;44.84;94769.94;5070335;28;20215;-77
2023/07/18 08:17:07;;;;;;;16.98;13.82;;;;;;;34.71;44.64;94768.16;5070342;28;20211;-78
2023/07/18 08:19:35;;;;;;;23.00;13.45;;;;;;;35.31;43.61;94769.84;5066754;28;20223;-77
2023/07/18 08:22:02;;;;;;;14.80;13.27;;;;;;;34.39;44.09;94778.25;5069386;28;20203;-77
2023/07/18 08:24:29;;;;;;;15.77;13.43;;;;;;;33.75;44.74;94773.69;5070254;28;20199;-76
2023/07/18 08:26:56;;;;;;;18.95;14.15;;;;;;;33.75;45.79;94770.09;5070163;28;20203;-78
2023/07/18 08:29:24;;;;;;;18.02;14.20;;;;;;;34.65;44.39;94765.22;5069795;28;20199;-77
2023/07/18 08:31:54;;;;;;;16.45;14.68;;;;;;;34.59;43.94;94773.53;5069267;28;20231;-75
2023/07/18 08:34:21;;;;;;;16.52;14.75;;;;;;;34.35;46.19;94774.81;5067732;28;20235;-78
2023/07/18 08:36:48;;;;;;;15.80;13.70;;;;;;;33.40;45.96;94775.38;5068817;28;20612;-77
2023/07/18 08:39:15;;;;;;;16.60;14.43;;;;;;;32.72;46.69;94778.41;5070333;28;20762;-77
2023/07/18 08:41:44;;;;;;;17.52;15.63;;;;;;;32.57;47.56;94782.25;5069575;28;20206;-76
2023/07/18 08:44:13;;;;;;;16.40;14.65;;;;;;;32.88;47.75;94774.50;5069421;28;20581;-77
2023/07/18 08:46:42;;;;;;;15.30;13.80;;;;;;;33.39;46.71;94773.81;5069409;28;20242;-77
2023/07/18 08:49:13;;;;;;;19.25;14.60;;;;;;;34.05;45.06;94773.88;5070031;28;20207;-77
2023/07/18 08:51:41;;;;;;;17.20;14.57;;;;;;;34.02;45.46;94769.22;5068679;28;20192;-75
2023/07/18 08:54:08;;;;;;;16.00;13.75;;;;;;;34.00;45.43;94766.09;5069708;28;20559;-72
2023/07/18 08:56:35;;;;;;;15.57;14.05;;;;;;;33.33;45.46;94772.91;5069903;28;20207;-77
2023/07/18 08:59:02;;;;;;;17.58;13.68;;;;;;;33.09;46.55;94772.75;5069656;28;20234;-78
2023/07/18 09:01:29;;;;;;;19.98;14.45;;;;;;;33.71;45.68;94764.66;5066882;28;20203;-78
2023/07/18 09:03:56;;;;;;;14.82;13.25;;;;;;;34.53;44.20;94752.97;5069768;28;20215;-79
2023/07/18 09:06:24;;;;;;;16.70;13.07;;;;;;;34.31;44.46;94766.56;5069539;28;20202;-78
2023/07/18 09:08:51;;;;;;;14.18;12.52;;;;;;;33.69;44.65;94763.56;5069762;28;20215;-74
2023/07/18 09:11:19;;;;;;;16.92;13.77;;;;;;;34.13;44.80;94758.22;5067945;28;20199;-75
2023/07/18 09:13:46;;;;;;;17.20;13.88;;;;;;;33.95;45.30;94756.28;5068753;28;20206;-76
2023/07/18 09:16:14;;;;;;;18.80;12.82;;;;;;;33.79;45.22;94757.44;5076137;28;20293;-75
2023/07/18 09:18:44;;;;;;;17.70;13.27;;;;;;;34.28;44.95;94759.09;5075110;28;20595;-77
2023/07/18 09:21:12;;;;;;;16.80;13.27;;;;;;;33.87;43.94;94761.47;5066696;28;20187;-76
2023/07/18 09:23:45;;;;;;;16.10;12.95;;;;;;;33.50;44.89;94757.22;5069773;28;20195;-77
2023/07/18 09:26:14;;;;;;;14.05;12.45;;;;;;;33.17;45.89;94757.16;5070267;28;20267;-78
2023/07/18 09:28:41;;;;;;;17.15;12.63;;;;;;;33.30;45.30;94754.19;5067843;28;20199;-78
2023/07/18 09:31:18;;;;;;;18.70;13.35;;;;;;;33.26;45.73;94753.56;5076014;28;20238;-77
2023/07/18 09:33:45;;;;;;;16.50;13.60;;;;;;;33.22;46.91;94752.91;5082986;28;20218;-78
2023/07/18 09:36:17;;;;;;;16.25;14.23;;;;;;;32.86;48.34;94748.94;5068846;28;20673;-78
2023/07/18 09:38:47;;;;;;;21.58;15.20;;;;;;;32.94;48.72;94749.41;5086688;28;20326;-79
2023/07/18 09:41:14;;;;;;;17.00;14.40;;;;;;;33.03;50.08;94752.97;5069095;28;20731;-78
2023/07/18 09:43:43;;;;;;;15.90;14.18;;;;;;;33.25;47.08;94757.63;5068672;28;20242;-79
2023/07/18 09:46:12;;;;;;;17.98;14.73;;;;;;;33.95;45.80;94747.84;5067891;28;20305;-77
2023/07/18 09:48:40;;;;;;;18.30;14.90;;;;;;;34.27;45.32;94746.28;5068727;28;20206;-78
2023/07/18 09:51:10;;;;;;;17.67;14.10;;;;;;;34.13;45.23;94738.53;5067874;28;20209;-78
2023/07/18 09:53:38;;;;;;;15.80;13.13;;;;;;;33.72;45.06;94749.34;5070272;28;20229;-78
2023/07/18 09:56:09;;;;;;;16.00;13.32;;;;;;;33.22;47.28;94736.84;5088567;28;20214;-76
2023/07/18 09:58:39;;;;;;;14.63;12.55;;;;;;;33.77;44.75;94733.88;5089108;28;20211;-77
2023/07/18 10:01:11;;;;;;;15.63;13.88;;;;;;;34.07;45.40;94727.16;5073400;28;20206;-78
2023/07/18 10:03:39;;;;;;;16.67;14.00;;;;;;;34.03;45.82;94722.97;5069011;28;20298;-78
2023/07/18 10:06:09;;;;;;;16.60;11.80;;;;;;;32.68;47.27;94729.25;5067759;28;20227;-77
2023/07/18 10:08:37;;;;;;;13.73;12.30;;;;;;;33.30;46.60;94726.09;5068685;28;20199;-75
2023/07/18 10:11:07;;;;;;;14.88;12.77;;;;;;;32.84;46.33;94734.56;5068505;28;20230;-74
2023/07/18 10:13:41;;;;;;;14.15;12.75;;;;;;;33.21;45.40;94712.06;5068565;28;20241;-77
2023/07/18 10:16:20;;;;;;;18.73;12.82;;;;;;;33.15;46.24;94726.72;5080874;28;20305;-72
2023/07/18 10:18:48;;;;;;;17.60;12.43;;;;;;;33.87;44.89;94713.69;5075595;28;20222;-78
2023/07/18 10:21:28;;;;;;;14.60;11.80;;;;;;;33.40;45.66;94719.19;5068387;28;20206;-78
2023/07/18 10:23:55;;;;;;;14.13;10.88;;;;;;;33.03;45.08;94727.69;5066455;28;20332;-78
2023/07/18 10:26:31;;;;;;;14.18;11.20;;;;;;;33.68;44.51;94722.66;5068009;28;20191;-78
2023/07/18 10:29:02;;;;;;;15.38;11.30;;;;;;;33.71;45.05;94716.88;5068170;28;20297;-78
2023/07/18 10:31:30;;;;;;;13.32;11.45;;;;;;;33.70;44.80;94717.34;5065374;28;20233;-77
2023/07/18 10:34:09;;;;;;;12.50;10.65;;;;;;;33.99;43.43;94714.72;5066859;28;20199;-77
2023/07/18 10:36:36;;;;;;;13.55;10.90;;;;;;;33.02;45.31;94723.31;5081967;28;20284;-76
2023/07/18 10:39:14;;;;;;;14.07;11.27;;;;;;;32.52;46.94;94729.59;5088259;28;20305;-76
2023/07/18 10:41:44;;;;;;;12.32;10.75;;;;;;;32.55;45.42;94723.03;5082244;28;20505;-77
2023/07/18 10:44:13;;;;;;;13.30;11.98;;;;;;;33.13;46.04;94718.00;5067601;28;20199;-78
2023/07/18 10:46:41;;;;;;;11.07;9.95;;;;;;;33.35;44.46;94725.47;5062471;28;20665;-75
2023/07/18 10:49:08;;;;;;;9.07;7.93;;;;;;;32.84;44.21;94726.16;5067248;28;20244;-76
2023/07/18 10:51:36;;;;;;;11.48;8.88;;;;;;;33.23;43.78;94712.34;5068183;28;20206;-78
2023/07/18 10:54:04;;;;;;;10.50;8.30;;;;;;;32.99;43.39;94718.66;5067225;28;20203;-78
2023/07/18 10:56:30;;;;;;;9.18;6.72;;;;;;;32.53;42.32;94719.94;5067708;28;20194;-78
2023/07/18 10:58:58;;;;;;;9.45;7.43;;;;;;;32.34;43.47;94725.53;5067022;28;20245;-79
2023/07/18 11:01:27;;;;;;;9.80;6.70;;;;;;;32.41;43.76;94725.22;5070551;28;20195;-77
2023/07/18 11:03:54;;;;;;;8.88;7.38;;;;;;;32.61;43.99;94726.78;5068965;28;20673;-75
2023/07/18 11:06:22;;;;;;;9.18;6.40;;;;;;;32.83;41.88;94727.41;5074535;28;20594;-74
2023/07/18 11:08:49;;;;;;;7.22;5.47;;;;;;;33.05;40.00;94722.38;5060996;28;20207;-74
2023/07/18 11:11:18;;;;;;;6.78;4.47;;;;;;;33.05;38.75;94722.38;5078722;28;20257;-73
2023/07/18 11:13:45;;;;;;;8.13;4.45;;;;;;;32.98;38.19;94722.69;5067383;28;20199;-80
2023/07/18 11:16:14;;;;;;;7.32;4.38;;;;;;;33.10;38.10;94724.53;5066951;28;20352;-77
2023/07/18 11:18:45;;;;;;;8.23;5.22;;;;;;;33.18;36.13;94720.16;5067570;28;20203;-79
2023/07/18 11:21:13;;;;;;;5.50;4.90;;;;;;;33.09;37.22;94717.38;5067585;28;20195;-72